Time;durP1;ratioP1;P1;durP2;ratioP2;P2;SDS_P1;SDS_P2;PMS_P1;PMS_P2;Temp;Humidity;BMP_temperature;BMP_pressure;BME280_temperature;BME280_humidity;BME280_pressure;Samples;Min_cycle;Max_cycle;Signal;HPM_P1;HPM_P2
2023/04/04 00:00:19;;;;;;;16.10;5.10;;;;;;;6.00;100.00;101958.88;5037048;28;20052;-88
2023/04/04 00:02:48;;;;;;;19.20;6.32;;;;;;;5.95;100.00;101935.47;5037917;28;20052;-88
2023/04/04 00:05:15;;;;;;;22.98;6.30;;;;;;;6.00;100.00;101951.97;5037368;28;20132;-88
2023/04/04 00:07:46;;;;;;;24.92;7.10;;;;;;;5.95;100.00;101952.78;5036862;28;20068;-88
2023/04/04 00:10:12;;;;;;;20.67;5.95;;;;;;;5.92;100.00;101948.44;5036578;28;20475;-87
2023/04/04 00:12:39;;;;;;;25.40;8.15;;;;;;;5.97;100.00;101962.34;5032534;28;20168;-88
2023/04/04 00:15:06;;;;;;;20.50;6.43;;;;;;;5.79;100.00;101926.78;5028056;28;20453;-88
2023/04/04 00:17:33;;;;;;;28.77;5.88;;;;;;;5.97;100.00;101935.50;5036501;28;20463;-88
2023/04/04 00:20:00;;;;;;;23.63;7.97;;;;;;;5.92;100.00;101927.66;5054323;28;20041;-87
2023/04/04 00:22:27;;;;;;;22.27;7.63;;;;;;;6.07;100.00;101950.22;5035836;28;20076;-88
2023/04/04 00:24:53;;;;;;;21.58;7.05;;;;;;;6.18;100.00;101961.50;5036276;28;20045;-87
2023/04/04 00:27:20;;;;;;;21.65;6.57;;;;;;;6.08;100.00;101970.16;5037081;28;20045;-88
2023/04/04 00:29:47;;;;;;;28.13;8.13;;;;;;;5.97;100.00;101951.09;5036169;28;20144;-87
2023/04/04 00:32:13;;;;;;;18.55;6.88;;;;;;;5.77;100.00;101922.44;5035978;28;20053;-87
2023/04/04 00:34:40;;;;;;;20.05;6.43;;;;;;;5.92;100.00;101932.00;5054206;28;20057;-88
2023/04/04 00:37:10;;;;;;;24.17;7.45;;;;;;;6.14;100.00;101971.91;5036262;28;20053;-87
2023/04/04 00:39:37;;;;;;;21.27;7.70;;;;;;;5.87;100.00;101951.03;5052772;28;20055;-88
2023/04/04 00:42:05;;;;;;;18.63;6.18;;;;;;;5.86;100.00;101932.81;5035609;28;20053;-88
2023/04/04 00:44:32;;;;;;;17.92;6.53;;;;;;;5.73;100.00;101912.91;5036023;28;20480;-87
2023/04/04 00:46:58;;;;;;;20.75;5.65;;;;;;;5.71;100.00;101907.69;5053961;28;20183;-87
2023/04/04 00:49:25;;;;;;;26.25;7.75;;;;;;;5.92;100.00;101934.59;5053358;28;20045;-87
2023/04/04 00:51:53;;;;;;;25.77;8.02;;;;;;;5.60;100.00;101906.81;5053410;28;20075;-86
2023/04/04 00:54:20;;;;;;;15.88;5.45;;;;;;;5.74;100.00;101912.03;5049194;28;20048;-87
2023/04/04 00:56:46;;;;;;;22.42;6.43;;;;;;;5.90;100.00;101943.25;5053496;28;20071;-88
2023/04/04 00:59:14;;;;;;;16.98;5.40;;;;;;;5.76;100.00;101931.09;5035969;28;20053;-85
2023/04/04 01:01:41;;;;;;;22.25;6.55;;;;;;;5.87;100.00;101932.84;5035070;28;20053;-87
2023/04/04 01:04:08;;;;;;;15.18;5.45;;;;;;;5.96;100.00;101944.16;5035927;28;20049;-86
2023/04/04 01:06:35;;;;;;;19.27;6.57;;;;;;;5.79;100.00;101920.69;5036190;28;20051;-87
2023/04/04 01:09:02;;;;;;;27.65;8.85;;;;;;;5.68;100.00;101908.56;5035932;28;20048;-87
2023/04/04 01:11:28;;;;;;;22.20;6.68;;;;;;;5.56;100.00;101890.38;5052675;28;20536;-87
2023/04/04 01:13:55;;;;;;;20.75;5.93;;;;;;;5.77;100.00;101936.31;5035432;28;20548;-87
2023/04/04 01:16:23;;;;;;;25.38;7.65;;;;;;;5.55;100.00;101937.97;5036400;28;20156;-88
2023/04/04 01:18:51;;;;;;;24.95;7.47;;;;;;;5.85;100.00;101976.16;5053427;28;20052;-87
2023/04/04 01:21:20;;;;;;;24.98;7.22;;;;;;;5.55;100.00;101922.41;5034849;28;21151;-88
2023/04/04 01:24:03;;;;;;;21.98;6.97;;;;;;;5.90;100.00;101977.03;5036125;28;20678;-87
2023/04/04 01:26:30;;;;;;;17.83;6.65;;;;;;;5.84;100.00;101968.34;5052695;28;20144;-88
2023/04/04 01:28:58;;;;;;;21.55;6.00;;;;;;;5.90;100.00;101976.19;5044754;28;20057;-88
2023/04/04 01:31:32;;;;;;;23.17;6.85;;;;;;;5.53;100.00;101949.25;5034915;28;20044;-88
2023/04/04 01:34:09;;;;;;;14.75;5.15;;;;;;;5.45;100.00;101910.25;5035391;28;20044;-88
2023/04/04 01:36:52;;;;;;;18.17;5.18;;;;;;;5.48;100.00;101938.84;5035115;28;20052;-88
2023/04/04 01:39:40;;;;;;;14.48;5.55;;;;;;;5.62;100.00;101976.09;5035297;28;20068;-89
2023/04/04 01:42:08;;;;;;;13.85;5.07;;;;;;;5.50;100.00;101963.94;5049030;28;20045;-88
2023/04/04 01:44:35;;;;;;;20.55;4.95;;;;;;;5.29;100.00;101922.31;5035495;28;20060;-88
2023/04/04 01:47:05;;;;;;;13.32;4.93;;;;;;;5.62;100.00;101965.72;5035052;28;20076;-87
2023/04/04 01:49:32;;;;;;;18.30;8.38;;;;;;;5.54;100.00;101958.75;5052723;28;20167;-88
2023/04/04 01:51:59;;;;;;;17.98;6.43;;;;;;;5.23;100.00;101911.91;5048292;28;20094;-87
2023/04/04 01:54:27;;;;;;;17.13;6.68;;;;;;;5.02;100.00;101887.59;5035375;28;20053;-87
2023/04/04 01:56:53;;;;;;;12.18;5.20;;;;;;;5.38;100.00;101939.66;5053046;28;20044;-86
2023/04/04 01:59:20;;;;;;;14.05;4.95;;;;;;;5.23;100.00;101907.59;5053071;28;20111;-87
2023/04/04 02:01:47;;;;;;;14.63;5.80;;;;;;;5.00;100.00;101888.47;5036476;28;20056;-87
2023/04/04 02:04:14;;;;;;;18.55;6.43;;;;;;;5.28;100.00;101939.63;5039427;28;20453;-87
2023/04/04 02:06:41;;;;;;;19.85;7.97;;;;;;;5.26;100.00;101935.31;5056625;28;20104;-88
2023/04/04 02:09:07;;;;;;;15.68;5.75;;;;;;;5.19;100.00;101917.94;5055755;28;20095;-88
2023/04/04 02:11:34;;;;;;;18.75;6.78;;;;;;;5.22;100.00;101912.78;5055971;28;20048;-88
2023/04/04 02:14:01;;;;;;;18.27;6.35;;;;;;;5.00;100.00;101886.72;5038812;28;20486;-87
2023/04/04 02:16:27;;;;;;;22.60;6.97;;;;;;;5.27;100.00;101916.25;5039182;28;20405;-87
2023/04/04 02:18:54;;;;;;;21.50;6.63;;;;;;;4.86;100.00;101863.31;5055415;28;20048;-87
2023/04/04 02:21:21;;;;;;;23.05;8.15;;;;;;;5.23;100.00;101898.94;5055840;28;20037;-88
2023/04/04 02:23:48;;;;;;;24.25;7.57;;;;;;;4.97;100.00;101863.34;5056258;28;20049;-88
2023/04/04 02:26:14;;;;;;;19.10;6.93;;;;;;;4.84;100.00;101844.28;5038451;28;20472;-88
2023/04/04 02:28:41;;;;;;;21.20;7.00;;;;;;;5.20;100.00;101891.13;5054970;28;20049;-87
2023/04/04 02:31:08;;;;;;;14.75;6.38;;;;;;;5.11;100.00;101873.78;5038044;28;20052;-87
2023/04/04 02:33:34;;;;;;;22.08;8.80;;;;;;;5.13;100.00;101883.34;5041600;28;20049;-87
2023/04/04 02:36:01;;;;;;;15.68;6.05;;;;;;;4.87;100.00;101836.50;5038909;28;20075;-87
2023/04/04 02:38:28;;;;;;;17.88;6.53;;;;;;;4.92;100.00;101840.00;5056429;28;20049;-88
2023/04/04 02:40:54;;;;;;;17.50;5.95;;;;;;;4.85;100.00;101838.25;5034884;28;20482;-88
2023/04/04 02:43:21;;;;;;;17.33;6.05;;;;;;;5.04;100.00;101869.44;5054188;28;20552;-87
2023/04/04 02:45:48;;;;;;;15.52;5.85;;;;;;;5.31;100.00;101912.78;5056363;28;20049;-87
2023/04/04 02:48:15;;;;;;;11.45;4.43;;;;;;;5.10;100.00;101878.13;5037905;28;20056;-86
2023/04/04 02:50:41;;;;;;;15.43;6.03;;;;;;;5.09;100.00;101873.78;5037552;28;20049;-87
2023/04/04 02:53:09;;;;;;;14.50;5.00;;;;;;;4.97;100.00;101870.28;5038480;28;20049;-87
2023/04/04 02:55:35;;;;;;;12.13;5.45;;;;;;;4.70;100.00;101828.66;5038964;28;20057;-87
2023/04/04 02:58:02;;;;;;;11.30;4.60;;;;;;;4.62;100.00;101819.09;5038445;28;20115;-87
2023/04/04 03:00:29;;;;;;;14.48;5.22;;;;;;;4.91;100.00;101872.00;5037723;28;20617;-86
2023/04/04 03:02:56;;;;;;;11.10;5.45;;;;;;;5.03;100.00;101891.06;5038166;28;20048;-87
2023/04/04 03:05:24;;;;;;;16.75;6.60;;;;;;;4.73;100.00;101852.03;5036608;28;20045;-87
2023/04/04 03:07:57;;;;;;;14.68;5.78;;;;;;;4.82;100.00;101851.19;5038672;28;20052;-86
2023/04/04 03:10:28;;;;;;;11.18;4.38;;;;;;;5.02;100.00;101889.34;5037074;28;20116;-86
2023/04/04 03:12:56;;;;;;;17.00;7.35;;;;;;;4.48;100.00;101804.34;5056049;28;20055;-86
2023/04/04 03:15:23;;;;;;;15.80;6.13;;;;;;;4.99;100.00;101890.19;5038443;28;20049;-86
2023/04/04 03:17:50;;;;;;;11.60;5.15;;;;;;;4.85;100.00;101873.69;5037871;28;20619;-85
2023/04/04 03:20:17;;;;;;;14.15;5.65;;;;;;;4.64;100.00;101848.50;5037273;28;20052;-86
2023/04/04 03:22:44;;;;;;;17.52;5.88;;;;;;;4.79;100.00;101869.34;5038169;28;20045;-85
2023/04/04 03:25:10;;;;;;;15.02;7.13;;;;;;;4.69;100.00;101847.69;5037831;28;20445;-86
2023/04/04 03:27:38;;;;;;;15.45;6.25;;;;;;;4.60;100.00;101833.78;5037707;28;20536;-86
2023/04/04 03:30:07;;;;;;;14.60;5.68;;;;;;;4.70;100.00;101861.53;5037076;28;20044;-86
2023/04/04 03:32:36;;;;;;;16.83;6.55;;;;;;;4.36;100.00;101833.69;5037510;28;20053;-86
2023/04/04 03:35:03;;;;;;;11.77;5.53;;;;;;;4.07;100.00;101796.34;5055267;28;20060;-86
2023/04/04 03:37:29;;;;;;;12.38;4.93;;;;;;;4.36;100.00;101823.31;5036876;28;20067;-86
2023/04/04 03:39:56;;;;;;;13.05;5.28;;;;;;;4.21;100.00;101796.44;5040264;28;20103;-87
2023/04/04 03:42:23;;;;;;;13.35;5.10;;;;;;;4.62;100.00;101868.38;5054108;28;20044;-87
2023/04/04 03:44:50;;;;;;;12.07;5.25;;;;;;;4.11;100.00;101785.16;5037480;28;20048;-87
2023/04/04 03:47:16;;;;;;;13.80;5.00;;;;;;;4.14;100.00;101785.16;5037155;28;20052;-86
2023/04/04 03:49:43;;;;;;;10.75;4.60;;;;;;;4.38;100.00;101828.50;5037444;28;20053;-87
2023/04/04 03:52:10;;;;;;;11.85;3.95;;;;;;;4.47;100.00;101838.06;5036932;28;20468;-87
2023/04/04 03:54:36;;;;;;;9.75;4.13;;;;;;;4.06;100.00;101805.00;5054741;28;20098;-87
2023/04/04 03:57:03;;;;;;;12.40;4.60;;;;;;;4.15;100.00;101821.44;5037279;28;20445;-86
2023/04/04 03:59:30;;;;;;;13.15;4.88;;;;;;;4.02;100.00;101795.44;5037545;28;20056;-87
2023/04/04 04:01:57;;;;;;;10.15;4.18;;;;;;;4.17;100.00;101817.13;5036658;28;20049;-87
2023/04/04 04:04:23;;;;;;;12.80;4.40;;;;;;;4.17;100.00;101811.94;5037411;28;20063;-87
2023/04/04 04:06:50;;;;;;;11.40;4.32;;;;;;;4.17;100.00;101806.75;5054709;28;20044;-88
2023/04/04 04:09:17;;;;;;;9.32;3.80;;;;;;;4.24;100.00;101825.81;5033954;28;20053;-87
2023/04/04 04:11:44;;;;;;;16.58;4.55;;;;;;;3.90;100.00;101781.56;5036468;28;20049;-87
2023/04/04 04:14:11;;;;;;;10.05;4.22;;;;;;;3.99;100.00;101815.28;5053802;28;20076;-87
2023/04/04 04:16:40;;;;;;;10.10;4.45;;;;;;;3.71;100.00;101765.00;5037181;28;20390;-86
2023/04/04 04:19:06;;;;;;;9.35;3.95;;;;;;;4.01;100.00;101810.13;5054972;28;20049;-87
2023/04/04 04:21:33;;;;;;;9.27;3.58;;;;;;;4.08;100.00;101837.81;5036114;28;20095;-87
2023/04/04 04:24:00;;;;;;;8.63;3.63;;;;;;;3.85;100.00;101793.59;5054088;28;20067;-87
2023/04/04 04:26:26;;;;;;;10.43;4.40;;;;;;;3.72;100.00;101763.28;5054675;28;20083;-86
2023/04/04 04:28:53;;;;;;;16.02;3.90;;;;;;;3.92;100.00;101782.44;5036697;28;20044;-86
2023/04/04 04:31:20;;;;;;;14.25;3.83;;;;;;;3.80;100.00;101761.63;5036207;28;20574;-86
2023/04/04 04:33:47;;;;;;;14.23;4.95;;;;;;;3.90;100.00;101791.06;5036389;28;20045;-87
2023/04/04 04:36:14;;;;;;;9.32;4.10;;;;;;;3.88;100.00;101774.63;5054228;28;20056;-87
2023/04/04 04:38:41;;;;;;;10.73;4.35;;;;;;;3.98;100.00;101785.06;5036229;28;20048;-87
2023/04/04 04:41:08;;;;;;;11.82;4.72;;;;;;;3.96;100.00;101784.16;5051913;28;20041;-86
2023/04/04 04:43:36;;;;;;;10.68;4.28;;;;;;;3.99;100.00;101780.75;5054386;28;20466;-87
2023/04/04 04:46:02;;;;;;;11.57;3.83;;;;;;;4.19;100.00;101791.22;5054668;28;20045;-87
2023/04/04 04:48:29;;;;;;;11.95;4.57;;;;;;;3.99;100.00;101775.56;5036719;28;20045;-87
2023/04/04 04:50:56;;;;;;;11.02;3.83;;;;;;;3.98;100.00;101748.78;5035857;28;20139;-87
2023/04/04 04:53:22;;;;;;;8.18;3.40;;;;;;;4.09;100.00;101766.09;5053996;28;20045;-87
2023/04/04 04:55:51;;;;;;;8.73;3.22;;;;;;;4.18;100.00;101772.22;5036294;28;20045;-86
2023/04/04 04:58:21;;;;;;;9.68;3.10;;;;;;;4.45;100.00;101821.63;5053292;28;20053;-86
2023/04/04 05:00:48;;;;;;;11.07;3.50;;;;;;;4.34;100.00;101819.00;5034775;28;20099;-86
2023/04/04 05:03:15;;;;;;;15.80;4.32;;;;;;;4.06;100.00;101789.44;5053093;28;20045;-86
2023/04/04 05:05:42;;;;;;;12.98;4.03;;;;;;;4.30;100.00;101812.03;5035862;28;20102;-86
2023/04/04 05:08:09;;;;;;;16.55;4.60;;;;;;;4.10;100.00;101766.13;5035696;28;20045;-86
2023/04/04 05:10:36;;;;;;;13.43;4.20;;;;;;;4.00;100.00;101759.16;5034397;28;20371;-84
2023/04/04 05:13:03;;;;;;;12.30;4.35;;;;;;;4.14;100.00;101767.88;5053234;28;20049;-85
2023/04/04 05:15:30;;;;;;;11.52;4.15;;;;;;;4.14;100.00;101757.53;5035779;28;20049;-84
2023/04/04 05:17:57;;;;;;;10.95;4.50;;;;;;;4.52;100.00;101805.25;5035362;28;20055;-84
2023/04/04 05:20:24;;;;;;;9.57;4.03;;;;;;;4.14;100.00;101743.69;5052501;28;20056;-84
2023/04/04 05:22:50;;;;;;;10.98;3.80;;;;;;;4.45;100.00;101787.91;5036101;28;20045;-85
2023/04/04 05:25:17;;;;;;;10.23;3.67;;;;;;;4.12;100.00;101735.88;5035773;28;20052;-85
2023/04/04 05:27:47;;;;;;;9.98;3.33;;;;;;;4.33;100.00;101755.88;5032521;28;20049;-84
2023/04/04 05:30:15;;;;;;;11.35;3.10;;;;;;;4.46;100.00;101774.06;5028993;28;20083;-85
2023/04/04 05:32:44;;;;;;;8.52;2.65;;;;;;;4.42;100.00;101780.13;5035941;28;20049;-84
2023/04/04 05:35:11;;;;;;;10.88;3.42;;;;;;;4.35;100.00;101793.03;5053107;28;20127;-84
2023/04/04 05:37:39;;;;;;;8.25;2.88;;;;;;;4.23;100.00;101779.16;5052841;28;20138;-87
2023/04/04 05:40:07;;;;;;;9.73;3.20;;;;;;;4.05;100.00;101775.59;5035480;28;20053;-86
2023/04/04 05:42:33;;;;;;;10.43;2.83;;;;;;;4.04;100.00;101757.44;5035908;28;20052;-87
2023/04/04 05:45:00;;;;;;;8.20;2.80;;;;;;;4.07;100.00;101754.88;5030669;28;20479;-87
2023/04/04 05:47:27;;;;;;;8.45;3.10;;;;;;;4.15;100.00;101767.00;5028527;28;20049;-87
2023/04/04 05:49:53;;;;;;;10.88;3.45;;;;;;;4.02;100.00;101747.09;5029478;28;20054;-86
2023/04/04 05:52:20;;;;;;;18.73;4.07;;;;;;;4.26;100.00;101776.59;5033530;28;20045;-86
2023/04/04 05:54:47;;;;;;;13.30;4.05;;;;;;;4.25;100.00;101762.75;5034134;28;20045;-87
2023/04/04 05:57:14;;;;;;;13.88;4.88;;;;;;;4.01;100.00;101714.25;5031420;28;20049;-87
2023/04/04 05:59:40;;;;;;;9.98;3.50;;;;;;;4.17;100.00;101722.97;5029106;28;20053;-87
2023/04/04 06:02:07;;;;;;;10.15;4.60;;;;;;;4.41;100.00;101760.22;5050022;28;20090;-87
2023/04/04 06:04:34;;;;;;;15.52;4.55;;;;;;;4.59;100.00;101775.00;5043861;28;20114;-84
2023/04/04 06:07:01;;;;;;;13.25;4.80;;;;;;;4.43;100.00;101715.28;5034974;28;20056;-84
2023/04/04 06:09:28;;;;;;;12.23;4.78;;;;;;;4.69;100.00;101759.47;5034738;28;20084;-85
2023/04/04 06:11:55;;;;;;;15.23;5.32;;;;;;;4.72;100.00;101750.84;5050817;28;20139;-86
2023/04/04 06:14:21;;;;;;;15.20;5.53;;;;;;;4.55;100.00;101706.66;5051829;28;20124;-86
2023/04/04 06:16:48;;;;;;;11.60;4.75;;;;;;;5.16;100.00;101763.03;5034663;28;20106;-86
2023/04/04 06:19:15;;;;;;;11.27;4.93;;;;;;;5.11;100.00;101743.97;5052537;28;20410;-87
2023/04/04 06:21:42;;;;;;;14.15;5.13;;;;;;;5.35;100.00;101773.41;5052123;28;20091;-87
2023/04/04 06:24:08;;;;;;;12.75;4.60;;;;;;;5.22;100.00;101737.06;5034867;28;20084;-87
2023/04/04 06:26:36;;;;;;;12.10;4.30;;;;;;;5.56;100.00;101772.56;5043856;28;20060;-88
2023/04/04 06:29:03;;;;;;;17.85;5.13;;;;;;;5.47;100.00;101756.13;5051354;28;20045;-87
2023/04/04 06:31:30;;;;;;;13.43;3.60;;;;;;;5.34;100.00;101718.03;5051741;28;20076;-87
2023/04/04 06:33:57;;;;;;;12.52;4.50;;;;;;;5.58;100.00;101742.25;5046997;28;20076;-88
2023/04/04 06:36:24;;;;;;;10.63;3.22;;;;;;;5.75;100.00;101752.63;5052861;28;20053;-88
2023/04/04 06:38:51;;;;;;;12.85;4.60;;;;;;;5.65;100.00;101768.25;5034624;28;20053;-87
2023/04/04 06:41:18;;;;;;;12.65;5.15;;;;;;;5.56;100.00;101739.69;5032843;28;20074;-87
2023/04/04 06:43:48;;;;;;;17.52;4.65;;;;;;;6.05;100.00;101795.94;5051170;28;20542;-86
2023/04/04 06:46:14;;;;;;;9.60;3.88;;;;;;;6.20;100.00;101805.47;5050619;28;20095;-87
2023/04/04 06:48:42;;;;;;;11.48;3.78;;;;;;;6.37;100.00;101815.81;5046422;28;20132;-84
2023/04/04 06:51:10;;;;;;;12.77;4.45;;;;;;;6.09;100.00;101763.84;5054821;28;20095;-84
2023/04/04 06:53:37;;;;;;;10.60;4.72;;;;;;;6.20;100.00;101780.31;5055099;28;20053;-85
2023/04/04 06:56:04;;;;;;;15.35;4.93;;;;;;;6.20;100.00;101772.50;5038380;28;20470;-85
2023/04/04 06:58:31;;;;;;;13.75;4.68;;;;;;;6.35;100.00;101773.34;5037846;28;20053;-84
2023/04/04 07:00:58;;;;;;;14.65;6.97;;;;;;;6.31;100.00;101748.22;5041106;28;20462;-84
2023/04/04 07:03:26;;;;;;;14.45;4.85;;;;;;;7.10;100.00;101739.13;5055618;28;20053;-85
2023/04/04 07:05:52;;;;;;;14.88;4.68;;;;;;;7.83;100.00;101755.00;5038342;28;20074;-85
2023/04/04 07:08:19;;;;;;;17.00;5.32;;;;;;;8.31;100.00;101796.22;5034704;28;20057;-85
2023/04/04 07:10:46;;;;;;;14.15;4.95;;;;;;;8.62;100.00;101785.44;5054181;28;20045;-85
2023/04/04 07:13:13;;;;;;;13.40;5.03;;;;;;;8.58;100.00;101752.44;5038860;28;20049;-85
2023/04/04 07:15:47;;;;;;;13.98;4.97;;;;;;;9.09;100.00;101812.69;5037536;28;20052;-85
2023/04/04 07:18:15;;;;;;;14.15;4.97;;;;;;;9.28;100.00;101795.00;5042005;28;20057;-84
2023/04/04 07:20:42;;;;;;;12.02;4.75;;;;;;;9.79;100.00;101794.13;5050518;28;20075;-85
2023/04/04 07:23:11;;;;;;;14.13;5.30;;;;;;;9.77;100.00;101811.63;5037763;28;20045;-85
2023/04/04 07:25:38;;;;;;;13.88;6.05;;;;;;;10.16;100.00;101786.47;5054118;28;20057;-85
2023/04/04 07:28:05;;;;;;;13.45;5.38;;;;;;;10.43;100.00;101797.38;5055263;28;20501;-85
2023/04/04 07:30:38;;;;;;;17.05;5.40;;;;;;;10.60;100.00;101750.72;5037850;28;20140;-85
2023/04/04 07:33:05;;;;;;;12.55;5.95;;;;;;;10.72;100.00;101759.22;5053946;28;20041;-85
2023/04/04 07:35:34;;;;;;;14.23;6.40;;;;;;;10.72;100.00;101751.38;5037556;28;20053;-86
2023/04/04 07:38:01;;;;;;;15.40;6.43;;;;;;;10.79;100.00;101764.28;5037298;28;20459;-85
2023/04/04 07:40:28;;;;;;;22.38;6.22;;;;;;;10.83;100.00;101752.81;5035994;28;20569;-85
2023/04/04 07:42:55;;;;;;;12.23;5.85;;;;;;;11.13;100.00;101762.66;5037117;28;20599;-84
2023/04/04 07:45:22;;;;;;;14.18;6.65;;;;;;;11.21;100.00;101758.09;5054503;28;20045;-83
2023/04/04 07:47:48;;;;;;;19.38;8.13;;;;;;;10.85;100.00;101773.75;5033948;28;20076;-84
2023/04/04 07:50:15;;;;;;;15.32;5.80;;;;;;;10.44;100.00;101752.78;5036922;28;20045;-83
2023/04/04 07:52:48;;;;;;;15.13;5.07;;;;;;;10.05;100.00;101765.75;5030354;28;20049;-83
2023/04/04 07:55:15;;;;;;;13.93;5.40;;;;;;;9.75;100.00;101776.78;5054939;28;20076;-83
2023/04/04 07:57:42;;;;;;;23.15;6.70;;;;;;;9.02;100.00;101761.41;5054325;28;20049;-84
2023/04/04 08:00:10;;;;;;;17.65;6.75;;;;;;;8.92;100.00;101751.09;5053567;28;20072;-84
2023/04/04 08:02:37;;;;;;;12.23;5.32;;;;;;;8.89;100.00;101745.06;5038748;28;20045;-84
2023/04/04 08:05:05;;;;;;;16.15;6.63;;;;;;;8.73;100.00;101724.38;5051974;28;20071;-83
2023/04/04 08:07:32;;;;;;;13.65;6.28;;;;;;;8.84;100.00;101746.88;5031600;28;20052;-83
2023/04/04 08:09:59;;;;;;;13.02;5.60;;;;;;;9.01;100.00;101794.50;5053899;28;20064;-83
2023/04/04 08:12:25;;;;;;;14.90;6.57;;;;;;;8.69;100.00;101742.69;5053239;28;20575;-83
2023/04/04 08:14:52;;;;;;;16.67;7.47;;;;;;;8.77;100.00;101772.19;5052925;28;20045;-83
2023/04/04 08:17:19;;;;;;;13.38;4.97;;;;;;;9.07;100.00;101756.97;5054475;28;20135;-84
2023/04/04 08:19:46;;;;;;;11.93;5.38;;;;;;;8.76;100.00;101753.94;5055231;28;20071;-84
2023/04/04 08:22:13;;;;;;;13.60;7.00;;;;;;;8.85;100.00;101740.75;5053154;28;20041;-84
2023/04/04 08:24:40;;;;;;;19.13;4.97;;;;;;;9.03;100.00;101716.97;5036726;28;20544;-84
2023/04/04 08:27:06;;;;;;;17.85;6.80;;;;;;;8.81;100.00;101707.72;5036395;28;20429;-83
2023/04/04 08:29:33;;;;;;;12.80;6.32;;;;;;;9.53;100.00;101771.06;5036386;28;20049;-83
2023/04/04 08:32:00;;;;;;;19.65;6.22;;;;;;;9.45;100.00;101755.50;5036959;28;20045;-84
2023/04/04 08:34:27;;;;;;;15.18;7.00;;;;;;;8.93;100.00;101715.38;5055335;28;20102;-84
2023/04/04 08:36:54;;;;;;;17.35;8.93;;;;;;;9.11;100.00;101709.00;5036628;28;20059;-83
2023/04/04 08:39:21;;;;;;;19.33;6.97;;;;;;;9.62;100.00;101739.53;5054637;28;20052;-83
2023/04/04 08:41:56;;;;;;;18.00;7.40;;;;;;;9.84;100.00;101745.22;5052657;28;20045;-83
2023/04/04 08:44:25;;;;;;;12.50;6.10;;;;;;;10.14;100.00;101749.00;5042879;28;20384;-84
2023/04/04 08:46:53;;;;;;;16.83;7.22;;;;;;;9.93;100.00;101737.19;5035773;28;20092;-84
2023/04/04 08:49:22;;;;;;;17.02;6.97;;;;;;;9.98;100.00;101721.44;5053239;28;20049;-84
2023/04/04 08:51:52;;;;;;;13.73;6.65;;;;;;;10.03;100.00;101737.91;5041615;28;20631;-84
2023/04/04 08:54:19;;;;;;;19.02;7.07;;;;;;;9.94;100.00;101719.78;5053115;28;20049;-84
2023/04/04 08:56:47;;;;;;;16.67;7.15;;;;;;;10.11;100.00;101730.78;5036663;28;20055;-84
2023/04/04 08:59:17;;;;;;;15.02;7.60;;;;;;;10.04;100.00;101698.63;5053629;28;20049;-84
2023/04/04 09:01:44;;;;;;;13.40;6.55;;;;;;;10.27;100.00;101726.09;5034108;28;20045;-84
2023/04/04 09:04:11;;;;;;;14.68;6.35;;;;;;;10.16;100.00;101704.50;5034916;28;20556;-84
2023/04/04 09:06:38;;;;;;;14.68;7.00;;;;;;;10.19;100.00;101720.16;5036118;28;20065;-83
2023/04/04 09:09:06;;;;;;;16.75;7.05;;;;;;;10.36;100.00;101748.63;5054134;28;20061;-84
2023/04/04 09:11:34;;;;;;;13.43;6.57;;;;;;;10.67;100.00;101733.13;5052500;28;20049;-83
2023/04/04 09:14:03;;;;;;;13.77;7.03;;;;;;;10.27;100.00;101705.16;5054203;28;20045;-83
2023/04/04 09:16:30;;;;;;;17.42;6.88;;;;;;;10.80;100.00;101717.97;5036226;28;20049;-83
2023/04/04 09:18:57;;;;;;;19.45;7.57;;;;;;;11.11;100.00;101754.81;5038813;28;20071;-84
2023/04/04 09:21:25;;;;;;;16.05;6.82;;;;;;;10.77;100.00;101736.41;5052644;28;20456;-84
2023/04/04 09:23:59;;;;;;;15.35;7.60;;;;;;;10.86;100.00;101756.31;5052754;28;20045;-84
2023/04/04 09:26:26;;;;;;;16.35;7.40;;;;;;;10.37;100.00;101705.84;5051679;28;20053;-84
2023/04/04 09:28:54;;;;;;;13.80;6.55;;;;;;;10.92;100.00;101759.63;5052414;28;20449;-84
2023/04/04 09:31:23;;;;;;;13.82;7.50;;;;;;;10.39;100.00;101697.06;5051248;28;20094;-85
2023/04/04 09:33:50;;;;;;;18.10;7.30;;;;;;;9.80;100.00;101710.41;5021345;28;20063;-85
2023/04/04 09:36:17;;;;;;;18.88;7.50;;;;;;;10.15;100.00;101718.50;5037288;28;20096;-85
2023/04/04 09:38:45;;;;;;;12.95;6.55;;;;;;;10.90;100.00;101756.19;5036767;28;20106;-85
2023/04/04 09:41:15;;;;;;;24.75;8.77;;;;;;;10.46;100.00;101721.34;5050992;28;20045;-84
2023/04/04 09:43:45;;;;;;;14.77;7.28;;;;;;;10.47;100.00;101698.66;5052105;28;20077;-84
2023/04/04 09:46:12;;;;;;;17.75;7.78;;;;;;;10.63;100.00;101710.53;5051608;28;20059;-85
2023/04/04 09:48:40;;;;;;;12.98;5.82;;;;;;;10.81;100.00;101717.94;5034378;28;20055;-84
2023/04/04 09:51:11;;;;;;;15.35;7.38;;;;;;;10.63;100.00;101690.41;5033574;28;20126;-84
2023/04/04 09:53:40;;;;;;;17.45;7.72;;;;;;;11.04;100.00;101692.13;5051061;28;20052;-84
2023/04/04 09:56:08;;;;;;;12.90;5.75;;;;;;;10.76;100.00;101658.72;5052158;28;20132;-85
2023/04/04 09:58:35;;;;;;;15.75;7.55;;;;;;;11.68;100.00;101681.72;5052267;28;20041;-85
2023/04/04 10:01:07;;;;;;;15.32;5.50;;;;;;;11.62;100.00;101664.41;5033804;28;20044;-85
2023/04/04 10:03:37;;;;;;;11.10;5.53;;;;;;;11.90;100.00;101648.78;5050615;28;20076;-85
2023/04/04 10:06:06;;;;;;;16.25;8.30;;;;;;;11.66;100.00;101667.81;5034443;28;20672;-85
2023/04/04 10:08:36;;;;;;;17.13;6.47;;;;;;;11.62;100.00;101688.00;5052813;28;20560;-85
2023/04/04 10:11:04;;;;;;;18.67;7.13;;;;;;;11.30;100.00;101642.50;5033511;28;20053;-85
2023/04/04 10:13:39;;;;;;;12.13;6.05;;;;;;;11.43;100.00;101676.28;5034204;28;20490;-84
2023/04/04 10:16:07;;;;;;;17.42;6.82;;;;;;;11.42;100.00;101669.31;5034656;28;20137;-86
2023/04/04 10:18:35;;;;;;;14.38;6.18;;;;;;;11.79;100.00;101635.06;5047543;28;20053;-85
2023/04/04 10:21:03;;;;;;;14.38;6.13;;;;;;;11.76;100.00;101643.03;5034041;28;20753;-86
2023/04/04 10:23:45;;;;;;;14.52;6.05;;;;;;;11.35;100.00;101626.66;5035026;28;20402;-86
2023/04/04 10:26:12;;;;;;;12.63;6.25;;;;;;;11.51;100.00;101667.31;5056006;28;20102;-85
2023/04/04 10:28:40;;;;;;;15.57;7.00;;;;;;;11.05;100.00;101639.66;5038423;28;20049;-85
2023/04/04 10:31:24;;;;;;;18.92;7.63;;;;;;;11.20;100.00;101659.38;5034362;28;20042;-85
2023/04/04 10:34:19;;;;;;;16.05;7.35;;;;;;;11.46;100.00;101653.47;5035292;28;20133;-85
2023/04/04 10:36:52;;;;;;;15.65;7.70;;;;;;;11.14;100.00;101649.06;5030081;28;20783;-85
2023/04/04 10:39:31;;;;;;;13.13;5.90;;;;;;;11.31;100.00;101631.09;5056076;28;20132;-86
2023/04/04 10:42:00;;;;;;;14.88;6.32;;;;;;;11.66;100.00;101641.56;5037536;28;20375;-86
2023/04/04 10:44:36;;;;;;;15.70;7.75;;;;;;;11.35;100.00;101647.63;5055810;28;20055;-85
2023/04/04 10:47:20;;;;;;;21.90;8.85;;;;;;;10.89;100.00;101607.75;5038114;28;20128;-85
2023/04/04 10:49:49;;;;;;;18.05;7.75;;;;;;;10.77;100.00;101648.19;5037742;28;20053;-85
2023/04/04 10:52:22;;;;;;;14.15;7.22;;;;;;;11.28;100.00;101651.31;5034388;28;20533;-85
2023/04/04 10:54:51;;;;;;;20.85;9.02;;;;;;;11.06;100.00;101615.16;5052046;28;20057;-85
2023/04/04 10:57:18;;;;;;;16.45;9.35;;;;;;;10.68;100.00;101627.47;5038055;28;20145;-86
2023/04/04 11:00:00;;;;;;;29.55;10.23;;;;;;;10.20;100.00;101615.44;5037201;28;20568;-85
2023/04/04 11:02:47;;;;;;;28.90;10.77;;;;;;;10.58;100.00;101660.00;5036844;28;20053;-85
2023/04/04 11:05:50;;;;;;;20.48;11.10;;;;;;;10.33;100.00;101652.69;5037778;28;20044;-86
2023/04/04 11:08:21;;;;;;;20.40;10.48;;;;;;;10.69;100.00;101644.03;5049440;28;20474;-86
2023/04/04 11:10:50;;;;;;;19.10;10.02;;;;;;;10.20;100.00;101619.81;5054606;28;20055;-86
2023/04/04 11:13:28;;;;;;;20.23;8.73;;;;;;;10.83;100.00;101661.13;5041400;28;20478;-85
2023/04/04 11:16:00;;;;;;;16.27;9.27;;;;;;;10.66;100.00;101600.47;5037624;28;20053;-85
2023/04/04 11:18:30;;;;;;;21.48;10.43;;;;;;;10.91;100.00;101653.09;5037445;28;20087;-85